St. Elmo — WDG2405 — position and weather

sailwx.info

Track history (hours):
 
Tides and Currents Weather Stations Pressure Air Temp Water Temp Dewpoint Dewpoint Depression Visibility Wind Speed Wind Dir Waves Ship Positions

St. Elmo

Owner: Marquette Transportation Company Gulf-Inland, LLC, Jefferson, LA. More information available from US FCC via Universal Licensing System and Coast Guard Vessel Documentation Center.

Last reported at 2017-Jun-29 05:01 UTC. Time now 2017-Jun-29 05:27 UTC.
Position N 29°39' W 094°58'.

Length 18 m; draft 3 m.

Type: . MMSI: 367515330.

Date/timePositionNaut miles runAvg speedWind from/ knotsBaromVisibWave heightAir tempDewpointWater temp
2017-Jun-29 05:01N 29°39' W 094°58'4 7.3
2017-Jun-29 04:30N 29°42' W 095°01'3 6.6
2017-Jun-29 04:00N 29°45' W 095°04'1 0.9
2017-Jun-29 02:22N 29°46' W 095°05'4 6.5
2017-Jun-29 01:50N 29°44' W 095°01'2 6.0
2017-Jun-29 01:31N 29°42' W 095°00'3 6.5
2017-Jun-29 01:00N 29°39' W 094°58'4 7.1
2017-Jun-29 00:30N 29°36' W 094°57'3 7.1
2017-Jun-29 00:00N 29°33' W 094°54'2 1.3
2017-Jun-28 22:03N 29°35' W 094°56'0 6.9
2017-Jun-28 22:00N 29°35' W 094°56'3 6.6
2017-Jun-28 21:31N 29°38' W 094°58'3 6.8
2017-Jun-28 21:00N 29°41' W 094°59'4 6.2
2017-Jun-28 20:24N 29°44' W 095°03'3 1.7
2017-Jun-28 18:43N 29°45' W 095°06'3 1.0
2017-Jun-28 15:32N 29°44' W 095°09'0 4.9
2017-Jun-28 15:28N 29°44' W 095°09'1 0.2
2017-Jun-28 12:54N 29°45' W 095°10'4 1.3
2017-Jun-28 09:50N 29°46' W 095°05'2 5.1
2017-Jun-28 09:29N 29°45' W 095°04'3 5.3
2017-Jun-28 08:58N 29°43' W 095°01'2 4.9
2017-Jun-28 08:31N 29°42' W 094°59'3 5.4
2017-Jun-28 08:01N 29°39' W 094°58'2 4.7
2017-Jun-28 07:30N 29°37' W 094°58'3 5.5
2017-Jun-28 07:01N 29°37' W 095°01'0 0.5
2017-Jun-28 06:31N 29°37' W 095°01'0 0.0
2017-Jun-28 06:01N 29°37' W 095°01'0 0.0
2017-Jun-28 05:30N 29°37' W 095°01'0 0.0
2017-Jun-28 05:00N 29°37' W 095°01'0 0.0
2017-Jun-28 04:31N 29°37' W 095°01'0 0.0
2017-Jun-28 04:01N 29°37' W 095°01'0 0.0
2017-Jun-28 03:31N 29°37' W 095°01'0 0.0
2017-Jun-28 03:01N 29°37' W 095°01'0 0.0
2017-Jun-28 02:30N 29°37' W 095°01'0 0.0
2017-Jun-28 02:00N 29°37' W 095°01'0 0.0
2017-Jun-28 01:31N 29°37' W 095°01'0 0.0
2017-Jun-28 01:00N 29°37' W 095°01'0 0.0
2017-Jun-28 00:30N 29°37' W 095°01'0 0.0
2017-Jun-28 00:01N 29°37' W 095°01'0 0.0
2017-Jun-27 23:31N 29°37' W 095°01'0 0.0
2017-Jun-27 23:00N 29°37' W 095°01'0 0.0
2017-Jun-27 22:31N 29°37' W 095°01'0 0.0
2017-Jun-27 22:01N 29°37' W 095°01'1 2.1
2017-Jun-27 21:30N 29°37' W 095°00'2 4.8
2017-Jun-27 21:00N 29°38' W 094°58'3 6.9
2017-Jun-27 20:31N 29°41' W 094°59'3 6.4
2017-Jun-27 19:59N 29°44' W 095°02'4 1.1
2017-Jun-27 16:30N 29°46' W 095°05'0 0.0
2017-Jun-27 12:54N 29°46' W 095°05'4 0.7
2017-Jun-27 06:57N 29°45' W 095°10'4 0.1
2017-Jun-25 11:01N 29°46' W 095°05'0 2.5
2017-Jun-25 11:00N 29°46' W 095°05'2 3.8
2017-Jun-25 10:28N 29°45' W 095°04'2 4.2
2017-Jun-25 10:00N 29°44' W 095°02'2 3.8
2017-Jun-25 09:30N 29°42' W 095°00'2 3.8
2017-Jun-25 09:00N 29°41' W 094°59'2 3.8
2017-Jun-25 08:30N 29°39' W 094°58'2 4.0
2017-Jun-25 08:01N 29°37' W 094°57'2 4.1
2017-Jun-25 07:29N 29°37' W 094°60'1 3.0
2017-Jun-25 07:01N 29°37' W 095°02'0 0.0
2017-Jun-25 06:31N 29°37' W 095°01'0 0.3
2017-Jun-25 06:01N 29°37' W 095°02'0 0.0
2017-Jun-25 05:31N 29°37' W 095°01'0 0.0
2017-Jun-25 05:01N 29°37' W 095°02'0 0.0
2017-Jun-25 04:30N 29°37' W 095°01'0 0.0
2017-Jun-25 04:01N 29°37' W 095°01'0 0.0
2017-Jun-25 03:30N 29°37' W 095°01'0 0.0
2017-Jun-25 03:00N 29°37' W 095°01'0 0.0
2017-Jun-25 02:31N 29°37' W 095°01'0 0.0
2017-Jun-25 02:01N 29°37' W 095°01'0 0.0
2017-Jun-25 01:31N 29°37' W 095°01'0 0.0
2017-Jun-25 01:00N 29°37' W 095°01'0 0.0
2017-Jun-25 00:31N 29°37' W 095°01'0 0.0
2017-Jun-25 00:01N 29°37' W 095°01'0 0.0
2017-Jun-24 23:30N 29°37' W 095°02'0 0.0
2017-Jun-24 23:00N 29°37' W 095°01'0 0.3
2017-Jun-24 22:31N 29°37' W 095°02'0 0.1
2017-Jun-24 22:01N 29°37' W 095°01'0 0.0
2017-Jun-24 21:31N 29°37' W 095°01'0 0.5
2017-Jun-24 21:00N 29°37' W 095°01'1 2.8
2017-Jun-24 20:31N 29°37' W 094°60'2 3.7
2017-Jun-24 20:00N 29°37' W 094°58'3 6.2
2017-Jun-24 19:31N 29°40' W 094°59'3 6.0
2017-Jun-24 19:00N 29°43' W 095°01'3 5.8
2017-Jun-24 18:31N 29°44' W 095°04'2 0.2
2017-Jun-24 09:13N 29°46' W 095°05'0 0.0
2017-Jun-24 08:54N 29°46' W 095°05'1 0.3
2017-Jun-24 03:31N 29°45' W 095°04'0 6.1
2017-Jun-24 03:27N 29°45' W 095°04'3 5.5
2017-Jun-24 02:57N 29°43' W 095°01'1 2.9
2017-Jun-24 02:29N 29°42' W 095°02'1 0.1
2017-Jun-23 14:49N 29°43' W 095°03'2 5.2
2017-Jun-23 14:28N 29°42' W 095°01'5 1.9
2017-Jun-23 11:47N 29°46' W 095°05'0 0.0
2017-Jun-23 11:29N 29°46' W 095°05'0 0.0
2017-Jun-22 12:29N 29°46' W 095°05'0 0.0
2017-Jun-21 18:30N 29°46' W 095°06'0 0.0
2017-Jun-21 17:56N 29°46' W 095°05'0 0.0
2017-Jun-21 17:24N 29°46' W 095°05'0 0.0
2017-Jun-21 16:59N 29°46' W 095°06'0 0.0
2017-Jun-21 16:28N 29°46' W 095°06'0 0.0
2017-Jun-21 15:51N 29°46' W 095°06'0 0.0
2017-Jun-21 15:29N 29°46' W 095°06'0 0.0
2017-Jun-21 15:00N 29°46' W 095°06'0 0.1
2017-Jun-21 13:07N 29°46' W 095°05'0 0.7
2017-Jun-21 12:45N 29°46' W 095°06'0 0.0
2017-Jun-21 12:30N 29°46' W 095°06'0 0.0
2017-Jun-21 12:00N 29°46' W 095°06'4 0.3
2017-Jun-21 00:32N 29°45' W 095°10'4 0.9
2017-Jun-20 19:52N 29°46' W 095°05'0 0.4
2017-Jun-20 19:24N 29°46' W 095°05'3 0.2
2017-Jun-20 07:15N 29°44' W 095°08'2 6.1
2017-Jun-20 07:00N 29°45' W 095°10'1 0.1
2017-Jun-20 01:28N 29°44' W 095°09'4 1.1
2017-Jun-19 22:07N 29°46' W 095°05'1 0.2
2017-Jun-19 18:48N 29°46' W 095°04'2 5.5
2017-Jun-19 18:30N 29°44' W 095°03'2 5.1
2017-Jun-19 18:00N 29°43' W 095°01'3 5.4
2017-Jun-19 17:30N 29°41' W 094°59'0 0.5
2017-Jun-19 17:01N 29°41' W 094°59'0 0.8
2017-Jun-19 16:31N 29°41' W 094°59'2 3.6
2017-Jun-19 15:56N 29°42' W 095°01'2 3.8
2017-Jun-19 15:29N 29°44' W 095°02'2 3.3
2017-Jun-19 15:00N 29°44' W 095°03'2 3.8
2017-Jun-19 14:24N 29°46' W 095°05'  
Track history (hours):
 
Tides and Currents Weather Stations Pressure Air Temp Water Temp Dewpoint Dewpoint Depression Visibility Wind Speed Wind Dir Waves Ship Positions

St. Elmo

Owner: Marquette Transportation Company Gulf-Inland, LLC, Jefferson, LA. More information available from US FCC via Universal Licensing System and Coast Guard Vessel Documentation Center.

Last reported at 2017-Jun-29 05:01 UTC. Time now 2017-Jun-29 05:27 UTC.
Position N 29°39' W 094°58'.

Length 18 m; draft 3 m.

Type: . MMSI: 367515330.

Date/timePositionNaut miles runAvg speedWind from/ knotsBaromVisibWave heightAir tempDewpointWater temp
2017-Jun-29 05:01N 29°39' W 094°58'4 7.3
2017-Jun-29 04:30N 29°42' W 095°01'3 6.6
2017-Jun-29 04:00N 29°45' W 095°04'1 0.9
2017-Jun-29 02:22N 29°46' W 095°05'4 6.5
2017-Jun-29 01:50N 29°44' W 095°01'2 6.0
2017-Jun-29 01:31N 29°42' W 095°00'3 6.5
2017-Jun-29 01:00N 29°39' W 094°58'4 7.1
2017-Jun-29 00:30N 29°36' W 094°57'3 7.1
2017-Jun-29 00:00N 29°33' W 094°54'2 1.3
2017-Jun-28 22:03N 29°35' W 094°56'0 6.9
2017-Jun-28 22:00N 29°35' W 094°56'3 6.6
2017-Jun-28 21:31N 29°38' W 094°58'3 6.8
2017-Jun-28 21:00N 29°41' W 094°59'4 6.2
2017-Jun-28 20:24N 29°44' W 095°03'3 1.7
2017-Jun-28 18:43N 29°45' W 095°06'3 1.0
2017-Jun-28 15:32N 29°44' W 095°09'0 4.9
2017-Jun-28 15:28N 29°44' W 095°09'1 0.2
2017-Jun-28 12:54N 29°45' W 095°10'4 1.3
2017-Jun-28 09:50N 29°46' W 095°05'2 5.1
2017-Jun-28 09:29N 29°45' W 095°04'3 5.3
2017-Jun-28 08:58N 29°43' W 095°01'2 4.9
2017-Jun-28 08:31N 29°42' W 094°59'3 5.4
2017-Jun-28 08:01N 29°39' W 094°58'2 4.7
2017-Jun-28 07:30N 29°37' W 094°58'3 5.5
2017-Jun-28 07:01N 29°37' W 095°01'0 0.5
2017-Jun-28 06:31N 29°37' W 095°01'0 0.0
2017-Jun-28 06:01N 29°37' W 095°01'0 0.0
2017-Jun-28 05:30N 29°37' W 095°01'0 0.0
2017-Jun-28 05:00N 29°37' W 095°01'0 0.0
2017-Jun-28 04:31N 29°37' W 095°01'0 0.0
2017-Jun-28 04:01N 29°37' W 095°01'0 0.0
2017-Jun-28 03:31N 29°37' W 095°01'0 0.0
2017-Jun-28 03:01N 29°37' W 095°01'0 0.0
2017-Jun-28 02:30N 29°37' W 095°01'0 0.0
2017-Jun-28 02:00N 29°37' W 095°01'0 0.0
2017-Jun-28 01:31N 29°37' W 095°01'0 0.0
2017-Jun-28 01:00N 29°37' W 095°01'0 0.0
2017-Jun-28 00:30N 29°37' W 095°01'0 0.0
2017-Jun-28 00:01N 29°37' W 095°01'0 0.0
2017-Jun-27 23:31N 29°37' W 095°01'0 0.0
2017-Jun-27 23:00N 29°37' W 095°01'0 0.0
2017-Jun-27 22:31N 29°37' W 095°01'0 0.0
2017-Jun-27 22:01N 29°37' W 095°01'1 2.1
2017-Jun-27 21:30N 29°37' W 095°00'2 4.8
2017-Jun-27 21:00N 29°38' W 094°58'3 6.9
2017-Jun-27 20:31N 29°41' W 094°59'3 6.4
2017-Jun-27 19:59N 29°44' W 095°02'4 1.1
2017-Jun-27 16:30N 29°46' W 095°05'0 0.0
2017-Jun-27 12:54N 29°46' W 095°05'4 0.7
2017-Jun-27 06:57N 29°45' W 095°10'4 0.1
2017-Jun-25 11:01N 29°46' W 095°05'0 2.5
2017-Jun-25 11:00N 29°46' W 095°05'2 3.8
2017-Jun-25 10:28N 29°45' W 095°04'2 4.2
2017-Jun-25 10:00N 29°44' W 095°02'2 3.8
2017-Jun-25 09:30N 29°42' W 095°00'2 3.8
2017-Jun-25 09:00N 29°41' W 094°59'2 3.8
2017-Jun-25 08:30N 29°39' W 094°58'2 4.0
2017-Jun-25 08:01N 29°37' W 094°57'2 4.1
2017-Jun-25 07:29N 29°37' W 094°60'1 3.0
2017-Jun-25 07:01N 29°37' W 095°02'0 0.0
2017-Jun-25 06:31N 29°37' W 095°01'0 0.3
2017-Jun-25 06:01N 29°37' W 095°02'0 0.0
2017-Jun-25 05:31N 29°37' W 095°01'0 0.0
2017-Jun-25 05:01N 29°37' W 095°02'0 0.0
2017-Jun-25 04:30N 29°37' W 095°01'0 0.0
2017-Jun-25 04:01N 29°37' W 095°01'0 0.0
2017-Jun-25 03:30N 29°37' W 095°01'0 0.0
2017-Jun-25 03:00N 29°37' W 095°01'0 0.0
2017-Jun-25 02:31N 29°37' W 095°01'0 0.0
2017-Jun-25 02:01N 29°37' W 095°01'0 0.0
2017-Jun-25 01:31N 29°37' W 095°01'0 0.0
2017-Jun-25 01:00N 29°37' W 095°01'0 0.0
2017-Jun-25 00:31N 29°37' W 095°01'0 0.0
2017-Jun-25 00:01N 29°37' W 095°01'0 0.0
2017-Jun-24 23:30N 29°37' W 095°02'0 0.0
2017-Jun-24 23:00N 29°37' W 095°01'0 0.3
2017-Jun-24 22:31N 29°37' W 095°02'0 0.1
2017-Jun-24 22:01N 29°37' W 095°01'0 0.0
2017-Jun-24 21:31N 29°37' W 095°01'0 0.5
2017-Jun-24 21:00N 29°37' W 095°01'1 2.8
2017-Jun-24 20:31N 29°37' W 094°60'2 3.7
2017-Jun-24 20:00N 29°37' W 094°58'3 6.2
2017-Jun-24 19:31N 29°40' W 094°59'3 6.0
2017-Jun-24 19:00N 29°43' W 095°01'3 5.8
2017-Jun-24 18:31N 29°44' W 095°04'2 0.2
2017-Jun-24 09:13N 29°46' W 095°05'0 0.0
2017-Jun-24 08:54N 29°46' W 095°05'1 0.3
2017-Jun-24 03:31N 29°45' W 095°04'0 6.1
2017-Jun-24 03:27N 29°45' W 095°04'3 5.5
2017-Jun-24 02:57N 29°43' W 095°01'1 2.9
2017-Jun-24 02:29N 29°42' W 095°02'1 0.1
2017-Jun-23 14:49N 29°43' W 095°03'2 5.2
2017-Jun-23 14:28N 29°42' W 095°01'5 1.9
2017-Jun-23 11:47N 29°46' W 095°05'0 0.0
2017-Jun-23 11:29N 29°46' W 095°05'0 0.0
2017-Jun-22 12:29N 29°46' W 095°05'0 0.0
2017-Jun-21 18:30N 29°46' W 095°06'0 0.0
2017-Jun-21 17:56N 29°46' W 095°05'0 0.0
2017-Jun-21 17:24N 29°46' W 095°05'0 0.0
2017-Jun-21 16:59N 29°46' W 095°06'0 0.0
2017-Jun-21 16:28N 29°46' W 095°06'0 0.0
2017-Jun-21 15:51N 29°46' W 095°06'0 0.0
2017-Jun-21 15:29N 29°46' W 095°06'0 0.0
2017-Jun-21 15:00N 29°46' W 095°06'0 0.1
2017-Jun-21 13:07N 29°46' W 095°05'0 0.7
2017-Jun-21 12:45N 29°46' W 095°06'0 0.0
2017-Jun-21 12:30N 29°46' W 095°06'0 0.0
2017-Jun-21 12:00N 29°46' W 095°06'4 0.3
2017-Jun-21 00:32N 29°45' W 095°10'4 0.9
2017-Jun-20 19:52N 29°46' W 095°05'0 0.4
2017-Jun-20 19:24N 29°46' W 095°05'3 0.2
2017-Jun-20 07:15N 29°44' W 095°08'2 6.1
2017-Jun-20 07:00N 29°45' W 095°10'1 0.1
2017-Jun-20 01:28N 29°44' W 095°09'4 1.1
2017-Jun-19 22:07N 29°46' W 095°05'1 0.2
2017-Jun-19 18:48N 29°46' W 095°04'2 5.5
2017-Jun-19 18:30N 29°44' W 095°03'2 5.1
2017-Jun-19 18:00N 29°43' W 095°01'3 5.4
2017-Jun-19 17:30N 29°41' W 094°59'0 0.5
2017-Jun-19 17:01N 29°41' W 094°59'0 0.8
2017-Jun-19 16:31N 29°41' W 094°59'2 3.6
2017-Jun-19 15:56N 29°42' W 095°01'2 3.8
2017-Jun-19 15:29N 29°44' W 095°02'2 3.3
2017-Jun-19 15:00N 29°44' W 095°03'2 3.8
2017-Jun-19 14:24N 29°46' W 095°05'  

Dump ship's entire track history